Time;durP1;ratioP1;P1;durP2;ratioP2;P2;SDS_P1;SDS_P2;PMS_P1;PMS_P2;Temp;Humidity;BMP_temperature;BMP_pressure;BME280_temperature;BME280_humidity;BME280_pressure;Samples;Min_cycle;Max_cycle;Signal;HPM_P1;HPM_P2
2024/04/05 00:01:20;;;;;;;1.70;0.50;;;;;;;9.75;93.64;96422.52;108587;1275;22652;-74
2024/04/05 00:03:57;;;;;;;1.00;0.70;;;;;;;9.78;93.66;96417.77;108502;1275;22516;-74
2024/04/05 00:06:28;;;;;;;1.40;0.50;;;;;;;9.81;93.75;96418.42;108544;1275;23382;-74
2024/04/05 00:08:58;;;;;;;0.80;0.40;;;;;;;9.86;93.74;96424.98;108580;1275;22519;-74
2024/04/05 00:11:29;;;;;;;0.90;0.50;;;;;;;9.92;93.50;96422.90;108529;1272;22555;-74
2024/04/05 00:13:59;;;;;;;1.00;0.40;;;;;;;9.98;93.30;96425.23;108526;1269;22539;-74
2024/04/05 00:16:32;;;;;;;0.40;0.30;;;;;;;10.02;93.41;96422.36;108582;1275;22641;-74
2024/04/05 00:19:03;;;;;;;1.00;0.40;;;;;;;10.08;93.24;96415.29;108583;1268;24455;-74
2024/04/05 00:21:33;;;;;;;0.60;0.30;;;;;;;10.15;93.03;96417.84;108543;1275;22533;-74
2024/04/05 00:24:04;;;;;;;0.90;0.30;;;;;;;10.17;92.58;96419.98;108548;1275;22647;-74
2024/04/05 00:26:35;;;;;;;1.10;0.60;;;;;;;10.17;92.26;96421.27;108541;1275;24678;-74
2024/04/05 00:29:05;;;;;;;0.90;0.40;;;;;;;10.17;92.69;96411.14;108546;1268;22551;-74
2024/04/05 00:31:36;;;;;;;0.90;0.40;;;;;;;10.18;92.18;96421.51;108591;1275;22524;-74
2024/04/05 00:34:06;;;;;;;0.40;0.30;;;;;;;10.20;91.85;96413.54;108555;1269;24354;-74
2024/04/05 00:36:37;;;;;;;0.80;0.50;;;;;;;10.20;91.47;96414.91;108633;1274;25094;-74
2024/04/05 00:39:07;;;;;;;0.90;0.50;;;;;;;10.21;91.20;96415.17;108658;1269;22532;-74
2024/04/05 00:41:38;;;;;;;1.30;0.40;;;;;;;10.25;90.98;96415.67;108596;1274;24302;-74
2024/04/05 00:44:08;;;;;;;0.30;0.30;;;;;;;10.31;90.84;96422.38;108572;1275;22525;-74
2024/04/05 00:46:39;;;;;;;0.50;0.20;;;;;;;10.34;90.38;96420.48;108559;1269;22548;-74
2024/04/05 00:49:11;;;;;;;0.70;0.30;;;;;;;10.36;90.09;96422.69;108578;1275;22563;-74
2024/04/05 00:51:41;;;;;;;1.00;0.40;;;;;;;10.36;89.82;96425.16;108564;1275;25288;-73
2024/04/05 00:54:12;;;;;;;0.50;0.50;;;;;;;10.39;89.71;96425.52;108523;1275;22545;-74
2024/04/05 00:56:43;;;;;;;0.80;0.30;;;;;;;10.38;89.35;96423.60;108557;1275;24275;-74
2024/04/05 00:59:15;;;;;;;0.70;0.30;;;;;;;10.36;89.27;96430.95;108574;1275;22700;-73
2024/04/05 01:01:48;;;;;;;1.20;0.50;;;;;;;10.32;89.01;96436.51;108564;1275;25089;-74
2024/04/05 01:04:19;;;;;;;0.30;0.30;;;;;;;10.24;88.94;96438.42;108581;1269;22546;-74
2024/04/05 01:06:50;;;;;;;0.90;0.40;;;;;;;10.25;88.86;96436.35;108534;1275;22565;-74
2024/04/05 01:09:20;;;;;;;1.40;0.30;;;;;;;10.24;88.79;96443.35;108444;1268;22526;-74
2024/04/05 01:12:00;;;;;;;0.60;0.20;;;;;;;10.26;88.66;96441.52;108568;1275;26529;-74
2024/04/05 01:14:31;;;;;;;1.60;0.50;;;;;;;10.29;88.30;96448.36;108487;1275;25298;-74
2024/04/05 01:17:01;;;;;;;1.00;0.40;;;;;;;10.27;88.02;96448.59;108567;1275;22518;-74
2024/04/05 01:19:34;;;;;;;0.50;0.20;;;;;;;10.23;87.84;96453.27;108533;1269;22545;-74
2024/04/05 01:22:11;;;;;;;1.00;0.40;;;;;;;10.18;87.67;96458.50;108640;1275;22520;-74
2024/04/05 01:24:42;;;;;;;0.50;0.50;;;;;;;10.14;87.51;96457.80;108585;1272;22527;-74
2024/04/05 01:27:12;;;;;;;2.70;0.90;;;;;;;10.09;87.39;96457.93;108513;1275;25244;-74
2024/04/05 01:29:43;;;;;;;1.30;0.50;;;;;;;10.02;87.32;96456.52;108576;1275;23990;-74
2024/04/05 01:32:13;;;;;;;0.40;0.30;;;;;;;9.93;87.10;96455.14;108522;1272;22737;-74
2024/04/05 01:34:44;;;;;;;1.00;0.30;;;;;;;9.86;87.21;96464.75;108529;1275;22566;-74
2024/04/05 01:37:14;;;;;;;1.10;0.30;;;;;;;9.83;87.34;96465.34;108514;1269;22526;-74
2024/04/05 01:39:45;;;;;;;2.00;0.40;;;;;;;9.78;87.29;96473.42;108557;1275;22691;-74
2024/04/05 01:42:15;;;;;;;0.80;0.40;;;;;;;9.76;87.36;96478.64;108567;1272;24374;-74
2024/04/05 01:44:46;;;;;;;0.60;0.40;;;;;;;9.75;87.44;96478.75;108542;1268;22532;-74
2024/04/05 01:47:17;;;;;;;0.90;0.50;;;;;;;9.74;87.34;96478.23;108566;1269;22540;-74
2024/04/05 01:49:47;;;;;;;1.40;0.50;;;;;;;9.73;87.40;96484.22;108579;1275;22530;-74
2024/04/05 01:52:18;;;;;;;1.20;0.50;;;;;;;9.71;87.30;96488.58;108514;1275;22527;-74
2024/04/05 01:54:49;;;;;;;0.90;0.50;;;;;;;9.70;87.30;96491.10;108395;1275;174756;-74
2024/04/05 01:57:20;;;;;;;1.40;0.70;;;;;;;9.66;87.28;96493.89;108543;1275;22533;-74
2024/04/05 01:59:51;;;;;;;0.90;0.40;;;;;;;9.61;87.24;96494.66;108530;1275;22541;-74
2024/04/05 02:02:22;;;;;;;1.10;0.50;;;;;;;9.58;87.22;96500.77;108500;1275;24236;-74
2024/04/05 02:04:55;;;;;;;1.20;0.40;;;;;;;9.57;87.25;96500.89;108548;1268;22527;-74
2024/04/05 02:07:26;;;;;;;0.50;0.40;;;;;;;9.58;87.35;96503.80;108582;1268;22562;-74
2024/04/05 02:09:59;;;;;;;1.70;0.50;;;;;;;9.56;87.19;96506.77;108562;1268;22528;-74
2024/04/05 02:12:32;;;;;;;1.00;0.40;;;;;;;9.54;87.47;96511.36;108574;1275;22534;-74
2024/04/05 02:15:02;;;;;;;1.00;0.40;;;;;;;9.57;87.44;96510.73;108445;1268;23617;-74
2024/04/05 02:17:33;;;;;;;0.70;0.40;;;;;;;9.58;87.39;96515.71;108476;1274;25234;-74
2024/04/05 02:20:05;;;;;;;0.90;0.50;;;;;;;9.57;87.22;96515.60;108461;1268;22523;-74
2024/04/05 02:22:36;;;;;;;2.00;0.70;;;;;;;9.56;87.15;96522.16;108455;1272;25368;-74
2024/04/05 02:25:07;;;;;;;0.40;0.30;;;;;;;9.54;87.04;96522.70;108488;1273;22526;-74
2024/04/05 02:27:38;;;;;;;0.80;0.40;;;;;;;9.52;87.06;96524.77;108456;1268;22680;-74
2024/04/05 02:30:10;;;;;;;1.00;0.70;;;;;;;9.48;86.94;96525.50;108482;1269;22638;-74
2024/04/05 02:32:40;;;;;;;1.20;0.30;;;;;;;9.46;86.95;96526.04;108499;1275;22571;-74
2024/04/05 02:35:11;;;;;;;1.10;0.40;;;;;;;9.42;86.94;96529.91;108591;1269;22578;-74
2024/04/05 02:37:41;;;;;;;1.20;0.60;;;;;;;9.40;86.96;96530.49;108523;1269;22523;-74
2024/04/05 02:40:12;;;;;;;2.00;0.50;;;;;;;9.41;86.98;96532.49;108568;1275;22653;-74
2024/04/05 02:42:43;;;;;;;1.90;0.60;;;;;;;9.43;86.99;96535.41;108518;1268;22541;-74
2024/04/05 02:45:14;;;;;;;0.70;0.40;;;;;;;9.44;87.04;96535.67;108485;1276;25365;-73
2024/04/05 02:47:44;;;;;;;0.80;0.40;;;;;;;9.43;87.20;96538.75;108435;1276;22533;-74
2024/04/05 02:50:15;;;;;;;0.60;0.50;;;;;;;9.40;87.21;96538.48;108451;1276;25338;-74
2024/04/05 02:52:46;;;;;;;2.00;0.80;;;;;;;9.37;87.28;96539.45;108493;1275;23503;-74
2024/04/05 02:55:17;;;;;;;1.10;0.50;;;;;;;9.37;87.25;96538.67;108605;1275;22519;-74
2024/04/05 02:57:47;;;;;;;1.80;0.80;;;;;;;9.40;87.39;96545.52;108601;1275;24202;-74
2024/04/05 03:00:18;;;;;;;1.60;0.30;;;;;;;9.43;87.26;96548.00;108609;1268;22654;-74
2024/04/05 03:02:49;;;;;;;1.40;0.60;;;;;;;9.47;87.26;96544.45;108550;1275;26667;-74
2024/04/05 03:05:19;;;;;;;1.10;0.60;;;;;;;9.49;87.15;96541.83;108582;1275;22523;-74
2024/04/05 03:07:52;;;;;;;0.80;0.50;;;;;;;9.50;87.10;96545.54;108545;1269;22526;-73
2024/04/05 03:10:22;;;;;;;1.30;0.40;;;;;;;9.51;87.10;96546.43;108562;1275;22635;-73
2024/04/05 03:12:54;;;;;;;0.80;0.40;;;;;;;9.53;87.09;96547.80;108589;1275;22532;-74
2024/04/05 03:15:25;;;;;;;0.80;0.40;;;;;;;9.52;86.94;96552.14;108575;1275;22512;-73
2024/04/05 03:17:55;;;;;;;0.70;0.40;;;;;;;9.52;86.95;96556.42;108603;1269;22535;-73
2024/04/05 03:20:26;;;;;;;1.10;0.60;;;;;;;9.52;86.91;96556.16;108573;1275;22547;-73
2024/04/05 03:22:56;;;;;;;1.00;0.30;;;;;;;9.53;86.81;96563.14;108490;1275;25292;-73
2024/04/05 03:25:27;;;;;;;1.00;0.50;;;;;;;9.51;86.80;96563.95;108464;1276;22566;-73
2024/04/05 03:27:58;;;;;;;1.30;0.50;;;;;;;9.47;86.68;96568.58;108470;1268;22527;-73
2024/04/05 03:30:28;;;;;;;1.90;0.50;;;;;;;9.47;86.78;96570.80;108494;1273;22622;-73
2024/04/05 03:32:59;;;;;;;1.40;0.50;;;;;;;9.50;86.65;96571.27;108418;1276;22568;-74
2024/04/05 03:35:30;;;;;;;1.20;0.70;;;;;;;9.53;86.59;96578.59;108477;1276;24721;-74
2024/04/05 03:38:00;;;;;;;1.00;0.40;;;;;;;9.58;86.45;96585.31;108418;1276;22540;-74
2024/04/05 03:40:31;;;;;;;1.80;0.40;;;;;;;9.60;86.32;96587.85;108488;1276;22508;-74
2024/04/05 03:43:01;;;;;;;1.40;0.50;;;;;;;9.63;86.11;96589.57;108482;1268;22519;-74
2024/04/05 03:45:32;;;;;;;0.90;0.30;;;;;;;9.66;85.96;96596.33;108578;1275;22523;-74
2024/04/05 03:48:02;;;;;;;2.90;0.60;;;;;;;9.68;85.83;96599.48;108589;1275;25279;-74
2024/04/05 03:50:33;;;;;;;0.90;0.40;;;;;;;9.70;85.64;96597.73;108493;1275;22659;-74
2024/04/05 03:53:04;;;;;;;1.30;0.30;;;;;;;9.73;85.49;96600.54;108508;1275;24232;-74
2024/04/05 03:55:35;;;;;;;0.80;0.50;;;;;;;9.74;85.30;96603.50;108541;1275;22527;-74
2024/04/05 03:58:06;;;;;;;1.50;0.50;;;;;;;9.72;85.09;96605.63;108592;1269;22520;-74
2024/04/05 04:00:37;;;;;;;1.50;0.40;;;;;;;9.71;85.10;96606.31;108564;1275;22532;-74
2024/04/05 04:03:08;;;;;;;0.40;0.30;;;;;;;9.72;84.97;96611.35;108545;1275;22582;-74
2024/04/05 04:05:40;;;;;;;2.10;0.50;;;;;;;9.71;84.86;96612.62;108570;1275;22519;-74
2024/04/05 04:08:11;;;;;;;1.30;0.60;;;;;;;9.72;84.79;96620.71;108536;1275;22531;-74
2024/04/05 04:10:43;;;;;;;1.30;0.60;;;;;;;9.73;84.75;96623.52;108524;1275;22522;-74
2024/04/05 04:13:13;;;;;;;1.70;0.40;;;;;;;9.74;84.61;96622.40;108609;1275;22644;-74
2024/04/05 04:15:44;;;;;;;0.80;0.60;;;;;;;9.73;84.45;96620.60;108558;1275;22646;-74
2024/04/05 04:18:15;;;;;;;2.60;0.60;;;;;;;9.73;84.42;96622.15;108574;1268;25391;-74
2024/04/05 04:20:46;;;;;;;1.30;0.50;;;;;;;9.74;84.35;96624.67;108538;1275;23296;-74
2024/04/05 04:23:17;;;;;;;0.70;0.20;;;;;;;9.74;84.23;96625.79;108539;1269;22537;-74
2024/04/05 04:25:47;;;;;;;0.30;0.30;;;;;;;9.74;84.20;96628.02;108533;1275;22870;-74
2024/04/05 04:28:18;;;;;;;2.60;0.40;;;;;;;9.74;84.11;96625.52;108538;1275;24260;-74
2024/04/05 04:30:49;;;;;;;0.90;0.40;;;;;;;9.73;83.97;96627.48;108545;1275;22523;-73
2024/04/05 04:33:20;;;;;;;1.40;0.40;;;;;;;9.69;83.89;96632.52;108493;1275;22589;-74
2024/04/05 04:35:51;;;;;;;0.60;0.40;;;;;;;9.65;83.83;96628.46;108487;1275;22524;-74
2024/04/05 04:38:21;;;;;;;2.40;0.60;;;;;;;9.61;83.82;96632.93;108559;1269;22554;-74
2024/04/05 04:40:53;;;;;;;0.70;0.50;;;;;;;9.56;83.93;96638.98;108541;1275;25346;-74
2024/04/05 04:43:24;;;;;;;1.20;0.50;;;;;;;9.57;83.96;96638.03;108526;1275;22563;-74
2024/04/05 04:45:55;;;;;;;1.30;0.50;;;;;;;9.75;84.20;96641.66;108525;1274;25403;-74
2024/04/05 04:48:28;;;;;;;0.60;0.40;;;;;;;10.26;84.86;96635.72;108514;1275;22550;-74
2024/04/05 04:50:58;;;;;;;1.20;0.30;;;;;;;11.08;84.52;96641.97;108557;1275;22704;-74
2024/04/05 04:53:30;;;;;;;0.50;0.30;;;;;;;11.88;83.57;96644.40;108450;1275;22528;-74
2024/04/05 04:56:00;;;;;;;1.00;0.60;;;;;;;12.35;81.11;96644.16;108466;1273;22541;-74
2024/04/05 04:58:33;;;;;;;0.90;0.50;;;;;;;12.12;78.24;96645.43;108452;1268;22548;-74
2024/04/05 05:01:05;;;;;;;1.00;0.40;;;;;;;11.60;77.69;96646.52;108445;1276;25343;-74
2024/04/05 05:03:36;;;;;;;1.40;0.70;;;;;;;11.24;77.88;96647.24;108490;1268;22592;-74
2024/04/05 05:06:07;;;;;;;1.40;0.40;;;;;;;10.99;78.16;96653.80;108524;1269;22526;-74
2024/04/05 05:08:38;;;;;;;1.50;0.40;;;;;;;10.74;78.29;96652.25;108523;1275;25323;-74
2024/04/05 05:11:09;;;;;;;0.70;0.40;;;;;;;10.55;78.48;96651.98;108527;1269;22538;-74
2024/04/05 05:13:40;;;;;;;0.50;0.30;;;;;;;10.44;78.85;96661.70;108465;1272;23869;-74
2024/04/05 05:16:11;;;;;;;1.70;0.70;;;;;;;10.53;79.64;96657.89;108511;1275;25241;-74
2024/04/05 05:18:43;;;;;;;2.50;0.60;;;;;;;11.16;79.78;96657.61;108507;1272;25267;-74
2024/04/05 05:21:14;;;;;;;4.00;0.80;;;;;;;11.98;79.87;96659.58;108558;1275;22532;-74
2024/04/05 05:23:45;;;;;;;0.80;0.60;;;;;;;13.12;78.00;96659.15;108537;1272;23033;-74
2024/04/05 05:26:18;;;;;;;0.70;0.50;;;;;;;13.80;73.78;96661.98;108537;1268;22604;-74
2024/04/05 05:28:50;;;;;;;1.20;0.40;;;;;;;14.30;71.84;96666.27;108490;1269;22644;-74
2024/04/05 05:31:21;;;;;;;1.20;0.70;;;;;;;14.90;69.46;96669.56;108609;1275;23029;-74
2024/04/05 05:33:52;;;;;;;2.10;0.50;;;;;;;15.31;68.41;96674.77;108550;1275;22523;-74
2024/04/05 05:36:22;;;;;;;1.00;0.50;;;;;;;15.76;65.85;96673.68;108536;1269;22529;-74
2024/04/05 05:38:53;;;;;;;1.90;0.70;;;;;;;16.06;64.16;96674.39;108577;1275;24228;-74
2024/04/05 05:41:24;;;;;;;2.10;0.80;;;;;;;16.39;63.51;96676.67;108587;1272;25558;-75
2024/04/05 05:43:55;;;;;;;0.70;0.40;;;;;;;16.98;62.81;96679.08;108489;1275;22532;-74
2024/04/05 05:46:25;;;;;;;2.10;0.90;;;;;;;17.10;58.95;96682.19;108523;1275;22512;-75
2024/04/05 05:48:56;;;;;;;0.70;0.40;;;;;;;17.14;58.81;96682.30;108573;1275;25243;-75
2024/04/05 05:51:26;;;;;;;1.10;0.50;;;;;;;17.44;57.79;96686.77;108521;1275;23060;-74
2024/04/05 05:53:57;;;;;;;3.90;0.60;;;;;;;17.55;56.31;96693.05;108497;1272;22531;-75
2024/04/05 05:56:27;;;;;;;0.90;0.40;;;;;;;17.67;55.55;96688.58;108544;1275;22525;-74
2024/04/05 05:58:58;;;;;;;1.70;0.60;;;;;;;17.96;55.14;96688.58;108637;1269;22610;-75
2024/04/05 06:01:29;;;;;;;2.40;0.60;;;;;;;18.50;54.32;96688.28;108709;1269;25463;-74
2024/04/05 06:04:01;;;;;;;1.20;0.50;;;;;;;18.77;53.56;96681.32;108606;1275;22515;-75
2024/04/05 06:06:31;;;;;;;1.80;0.80;;;;;;;18.93;53.13;96686.71;108638;1269;22538;-75
2024/04/05 06:09:02;;;;;;;1.60;0.50;;;;;;;18.88;50.35;96691.52;108659;1275;24134;-75
2024/04/05 06:11:33;;;;;;;2.00;0.80;;;;;;;18.75;50.97;96687.02;108661;1275;25256;-75
2024/04/05 06:14:04;;;;;;;1.30;0.50;;;;;;;19.14;51.16;96695.27;108652;1272;22578;-75
2024/04/05 06:16:34;;;;;;;0.70;0.50;;;;;;;19.00;48.73;96695.18;108650;1269;22519;-75
2024/04/05 06:19:05;;;;;;;1.90;0.60;;;;;;;19.01;49.24;96699.44;108658;1275;25349;-75
2024/04/05 06:21:37;;;;;;;1.20;0.60;;;;;;;19.50;48.94;96698.63;108698;1272;22534;-75
2024/04/05 06:24:08;;;;;;;2.30;0.70;;;;;;;19.24;47.16;96698.85;108692;1275;22648;-75
2024/04/05 06:26:39;;;;;;;1.80;0.60;;;;;;;19.07;47.98;96703.27;108667;1268;26446;-75
2024/04/05 06:29:10;;;;;;;2.50;0.70;;;;;;;19.76;48.86;96706.68;108690;1275;22519;-75
2024/04/05 06:31:40;;;;;;;1.30;0.60;;;;;;;20.79;48.98;96712.11;108595;1269;25036;-75
2024/04/05 06:34:11;;;;;;;1.70;0.50;;;;;;;20.96;44.89;96711.82;108583;1272;25364;-75
2024/04/05 06:36:41;;;;;;;1.50;0.40;;;;;;;20.67;46.37;96724.09;108568;1275;25714;-75
2024/04/05 06:39:12;;;;;;;1.00;0.50;;;;;;;21.22;45.37;96729.35;108571;1268;22527;-75
2024/04/05 06:41:43;;;;;;;1.20;0.60;;;;;;;21.19;44.40;96733.72;108485;1269;22543;-75
2024/04/05 06:44:15;;;;;;;1.40;0.60;;;;;;;21.04;44.28;96737.40;108377;1273;22539;-75
2024/04/05 06:46:46;;;;;;;2.40;0.80;;;;;;;21.37;44.67;96740.77;108545;1269;22634;-75
2024/04/05 06:49:17;;;;;;;0.60;0.50;;;;;;;21.61;43.63;96745.52;108548;1269;24194;-75
2024/04/05 06:51:47;;;;;;;2.20;0.60;;;;;;;21.50;43.04;96752.16;108602;1272;22570;-76
2024/04/05 06:54:18;;;;;;;0.90;0.60;;;;;;;22.30;43.92;96754.95;108545;1274;22530;-76
2024/04/05 06:56:48;;;;;;;1.10;0.60;;;;;;;22.46;42.72;96752.40;108594;1268;22583;-76
2024/04/05 06:59:19;;;;;;;1.90;0.70;;;;;;;22.61;41.80;96748.88;108592;1276;22549;-76
2024/04/05 07:01:51;;;;;;;1.10;0.50;;;;;;;22.41;41.87;96755.59;108570;1271;22565;-76
2024/04/05 07:04:26;;;;;;;2.40;1.10;;;;;;;22.79;42.02;96757.46;108623;1275;22509;-76
2024/04/05 07:06:56;;;;;;;1.00;0.60;;;;;;;21.38;40.71;96753.66;108654;1275;25275;-76
2024/04/05 07:09:29;;;;;;;2.00;0.60;;;;;;;20.24;41.80;96755.27;108690;1272;22531;-76
2024/04/05 07:12:04;;;;;;;2.90;0.60;;;;;;;19.58;42.97;96764.49;108555;1275;22520;-77
2024/04/05 07:14:35;;;;;;;0.60;0.60;;;;;;;18.58;43.70;96771.04;108587;1275;22509;-76
2024/04/05 07:17:08;;;;;;;2.00;0.90;;;;;;;17.52;45.81;96773.33;108548;1272;22539;-76
2024/04/05 07:19:38;;;;;;;2.30;0.70;;;;;;;17.84;47.40;96775.45;108612;1275;22525;-76
2024/04/05 07:22:15;;;;;;;2.10;0.70;;;;;;;17.65;46.94;96779.26;108621;1272;22509;-76
2024/04/05 07:24:46;;;;;;;1.90;0.70;;;;;;;16.68;47.95;96780.08;108530;1271;22512;-76
2024/04/05 07:27:17;;;;;;;1.90;0.60;;;;;;;15.82;49.13;96781.50;108265;1265;22545;-76
2024/04/05 07:29:48;;;;;;;1.60;0.60;;;;;;;15.26;50.32;96781.15;108607;1254;23242;-76
2024/04/05 07:32:18;;;;;;;3.10;1.10;;;;;;;15.05;51.60;96779.88;108601;1269;22742;-76
2024/04/05 07:34:50;;;;;;;1.40;0.50;;;;;;;15.84;52.97;96780.23;108600;1268;22536;-76
2024/04/05 07:37:21;;;;;;;1.80;0.50;;;;;;;17.57;51.11;96786.24;108409;1272;22542;-76
2024/04/05 07:39:55;;;;;;;2.20;0.70;;;;;;;17.46;49.56;96786.79;108536;1275;26440;-76
2024/04/05 07:42:26;;;;;;;2.70;0.80;;;;;;;16.84;49.97;96790.11;108394;1272;23526;-77
2024/04/05 07:44:59;;;;;;;2.30;0.60;;;;;;;17.54;49.82;96794.70;108516;1268;24272;-77
2024/04/05 07:47:33;;;;;;;2.90;0.80;;;;;;;16.83;49.29;96789.58;108515;1265;23061;-77
2024/04/05 07:50:04;;;;;;;1.40;0.50;;;;;;;16.52;50.15;96789.84;108307;1272;22534;-76
2024/04/05 07:52:35;;;;;;;2.00;0.70;;;;;;;15.88;50.40;96790.38;108562;1275;22583;-76
2024/04/05 07:55:08;;;;;;;0.90;0.60;;;;;;;16.16;51.64;96790.46;108577;1275;25317;-75
2024/04/05 07:57:38;;;;;;;2.00;0.60;;;;;;;17.93;49.95;96793.60;108372;1274;22561;-76
2024/04/05 08:00:20;;;;;;;1.20;0.60;;;;;;;17.39;48.35;96796.30;108452;1272;22518;-76
2024/04/05 08:02:56;;;;;;;2.60;1.00;;;;;;;18.18;50.02;96792.61;108495;1269;22509;-76
2024/04/05 08:05:27;;;;;;;3.00;0.80;;;;;;;19.87;48.15;96785.39;108303;1269;22527;-77
2024/04/05 08:07:58;;;;;;;1.80;0.80;;;;;;;21.01;46.13;96787.36;108461;1275;22617;-77
2024/04/05 08:10:30;;;;;;;2.40;0.90;;;;;;;23.01;46.81;96784.52;108608;1272;22533;-77
2024/04/05 08:13:01;;;;;;;2.40;0.70;;;;;;;24.28;43.95;96782.73;108499;1269;26442;-77
2024/04/05 08:15:33;;;;;;;2.90;1.10;;;;;;;23.69;41.83;96781.15;108563;1275;22551;-77
2024/04/05 08:18:04;;;;;;;2.30;0.70;;;;;;;23.81;42.24;96777.87;108548;1275;22547;-77
2024/04/05 08:20:36;;;;;;;1.30;0.50;;;;;;;23.27;40.84;96776.57;108578;1275;22810;-77
2024/04/05 08:23:06;;;;;;;2.70;0.80;;;;;;;21.28;41.30;96782.50;108542;1269;23746;-77
2024/04/05 08:25:37;;;;;;;1.60;0.60;;;;;;;19.79;42.20;96785.71;108576;1275;22527;-77
2024/04/05 08:28:08;;;;;;;2.80;1.00;;;;;;;18.39;42.95;96784.91;108536;1275;22519;-77
2024/04/05 08:30:39;;;;;;;2.60;0.80;;;;;;;18.03;44.99;96791.80;108581;1272;23737;-76
2024/04/05 08:33:09;;;;;;;4.00;0.90;;;;;;;18.61;44.38;96782.05;108536;1268;24388;-76
2024/04/05 08:35:40;;;;;;;2.80;1.10;;;;;;;17.89;45.20;96785.11;108605;1275;22574;-76
2024/04/05 08:38:11;;;;;;;2.00;0.50;;;;;;;19.51;47.16;96785.66;108618;1268;22535;-76
2024/04/05 08:40:43;;;;;;;2.50;0.80;;;;;;;21.36;44.11;96785.34;108533;1269;22530;-76
2024/04/05 08:43:18;;;;;;;2.90;0.90;;;;;;;22.32;42.90;96779.16;108546;1275;25686;-77
2024/04/05 08:45:50;;;;;;;1.70;0.90;;;;;;;22.73;42.49;96777.64;108545;1268;25524;-77
2024/04/05 08:48:23;;;;;;;1.80;0.80;;;;;;;22.91;40.08;96772.55;108583;1275;22572;-76
2024/04/05 08:50:54;;;;;;;2.30;0.80;;;;;;;21.93;39.73;96782.41;108603;1275;24210;-77
2024/04/05 08:53:25;;;;;;;1.50;1.00;;;;;;;21.60;41.15;96789.11;108467;1271;22539;-76
2024/04/05 08:55:58;;;;;;;1.10;0.50;;;;;;;21.79;41.65;96790.01;108391;1272;23038;-77
2024/04/05 08:58:30;;;;;;;1.40;0.60;;;;;;;21.65;41.06;96794.34;108463;1269;24286;-76
2024/04/05 09:01:02;;;;;;;3.40;0.80;;;;;;;20.16;41.60;96794.55;108531;1268;26438;-77
2024/04/05 09:03:33;;;;;;;2.00;0.80;;;;;;;19.72;42.87;96791.65;108494;1269;24253;-76
2024/04/05 09:06:04;;;;;;;2.00;0.80;;;;;;;19.18;43.43;96791.19;108534;1275;22542;-76
2024/04/05 09:08:46;;;;;;;0.90;0.60;;;;;;;18.80;44.49;96788.92;108500;1275;22647;-77
2024/04/05 09:11:22;;;;;;;4.30;1.50;;;;;;;18.65;45.06;96788.96;108518;1275;25407;-77
2024/04/05 09:14:03;;;;;;;2.40;0.80;;;;;;;18.76;45.66;96792.46;108450;1272;22532;-76
2024/04/05 09:16:34;;;;;;;1.10;0.60;;;;;;;18.47;45.16;96796.70;108570;1269;22523;-76
2024/04/05 09:19:12;;;;;;;2.20;0.90;;;;;;;18.39;45.87;96792.23;108538;1272;25562;-75
2024/04/05 09:21:46;;;;;;;2.20;0.70;;;;;;;18.43;45.96;96792.23;108517;1269;25403;-74
2024/04/05 09:24:19;;;;;;;3.00;0.70;;;;;;;18.42;46.47;96789.42;108427;1272;22535;-75
2024/04/05 09:27:01;;;;;;;2.60;0.90;;;;;;;18.00;46.15;96797.89;108388;1269;22631;-76
2024/04/05 09:29:34;;;;;;;1.30;0.50;;;;;;;17.72;46.73;96798.66;108318;1269;23131;-76
2024/04/05 09:32:06;;;;;;;1.50;0.60;;;;;;;17.33;46.64;96797.33;108185;1269;25352;-77
2024/04/05 09:34:39;;;;;;;2.10;0.60;;;;;;;16.90;47.81;96805.14;108188;1269;22530;-75
2024/04/05 09:37:10;;;;;;;1.90;0.90;;;;;;;17.09;48.97;96804.53;108415;1276;24208;-75
2024/04/05 09:39:41;;;;;;;1.40;0.60;;;;;;;17.53;48.48;96801.85;108371;1276;22745;-76
2024/04/05 09:42:12;;;;;;;2.40;0.50;;;;;;;17.58;48.12;96801.30;108445;1276;22530;-76
2024/04/05 09:44:44;;;;;;;1.60;0.60;;;;;;;17.63;48.24;96799.70;108312;1269;25035;-75
2024/04/05 09:47:16;;;;;;;3.40;1.70;;;;;;;17.52;47.61;96799.97;108199;1269;22582;-76
2024/04/05 09:49:47;;;;;;;2.10;0.50;;;;;;;17.39;48.30;96799.73;107940;1272;22556;-76
2024/04/05 09:52:24;;;;;;;1.30;0.50;;;;;;;17.34;47.45;96793.55;108025;1274;25423;-75
2024/04/05 09:55:00;;;;;;;1.60;0.40;;;;;;;17.21;46.90;96792.27;108068;1273;22581;-75
2024/04/05 09:57:32;;;;;;;2.10;0.60;;;;;;;16.99;47.56;96797.27;108216;1277;26097;-75
2024/04/05 10:00:13;;;;;;;3.60;0.80;;;;;;;17.07;48.03;96797.35;108197;1277;22570;-76
2024/04/05 10:02:47;;;;;;;1.60;0.60;;;;;;;17.37;48.37;96797.65;108306;1270;22529;-75
2024/04/05 10:05:30;;;;;;;0.90;0.50;;;;;;;17.65;48.51;96799.41;108531;1274;22662;-75
2024/04/05 10:08:12;;;;;;;1.30;0.60;;;;;;;17.77;47.82;96798.84;108409;1276;22539;-75
2024/04/05 10:10:44;;;;;;;1.60;0.60;;;;;;;17.60;47.66;96795.83;108400;1276;22656;-75
2024/04/05 10:13:18;;;;;;;2.80;0.60;;;;;;;17.35;46.52;96796.04;108448;1276;22541;-75
2024/04/05 10:15:58;;;;;;;1.80;0.60;;;;;;;17.19;46.76;96791.92;108429;1275;25224;-75
2024/04/05 10:18:34;;;;;;;1.70;0.60;;;;;;;17.24;47.26;96785.20;108390;1273;22576;-75
2024/04/05 10:21:08;;;;;;;2.10;0.50;;;;;;;17.07;46.93;96787.45;108355;1273;22549;-75
2024/04/05 10:23:43;;;;;;;1.50;0.40;;;;;;;16.87;46.99;96786.36;108400;1274;26359;-75
2024/04/05 10:26:15;;;;;;;3.00;0.40;;;;;;;16.86;47.51;96786.20;108363;1272;22619;-75
2024/04/05 10:28:46;;;;;;;3.30;0.60;;;;;;;16.77;46.47;96786.64;108484;1275;22523;-75
2024/04/05 10:31:17;;;;;;;0.50;0.30;;;;;;;16.81;46.73;96784.63;108470;1275;26450;-75
2024/04/05 10:33:48;;;;;;;1.50;0.50;;;;;;;17.14;47.02;96782.72;108486;1275;26438;-75
2024/04/05 10:36:19;;;;;;;1.60;0.60;;;;;;;17.31;46.81;96778.38;108479;1276;23195;-75
2024/04/05 10:38:49;;;;;;;1.50;0.40;;;;;;;17.26;46.42;96775.65;108447;1275;22585;-75
2024/04/05 10:41:20;;;;;;;1.30;0.40;;;;;;;17.18;45.72;96774.40;108390;1276;23166;-75
2024/04/05 10:44:04;;;;;;;2.50;0.60;;;;;;;17.16;46.22;96785.71;108413;1254;22547;-75
2024/04/05 10:46:37;;;;;;;1.90;0.60;;;;;;;17.37;46.61;96782.36;108489;1276;22545;-75
2024/04/05 10:49:08;;;;;;;1.30;0.50;;;;;;;17.46;46.94;96785.04;108412;1269;22566;-75
2024/04/05 10:51:39;;;;;;;2.60;0.90;;;;;;;17.35;46.16;96785.60;108423;1273;24405;-76
2024/04/05 10:54:14;;;;;;;1.30;0.60;;;;;;;17.35;46.96;96785.98;108464;1275;22589;-75
2024/04/05 10:56:46;;;;;;;2.10;0.50;;;;;;;17.51;47.35;96786.80;108427;1275;22525;-75
2024/04/05 10:59:20;;;;;;;1.90;0.80;;;;;;;17.62;47.59;96788.09;108465;1273;22653;-75
2024/04/05 11:01:50;;;;;;;2.00;0.70;;;;;;;17.45;46.29;96789.81;108382;1275;22520;-75
2024/04/05 11:04:25;;;;;;;1.10;0.30;;;;;;;17.35;46.62;96787.00;108438;1275;22524;-75
2024/04/05 11:07:03;;;;;;;3.10;0.80;;;;;;;17.56;46.98;96787.70;108242;1273;24981;-75
2024/04/05 11:09:36;;;;;;;1.30;0.40;;;;;;;17.68;46.13;96788.59;108462;1270;22525;-73
2024/04/05 11:12:08;;;;;;;1.10;0.40;;;;;;;17.61;45.61;96785.19;108497;1275;22525;-73
2024/04/05 11:14:39;;;;;;;3.20;0.70;;;;;;;17.61;45.51;96788.80;108231;1269;45872;-73
2024/04/05 11:17:10;;;;;;;2.20;0.50;;;;;;;17.66;45.42;96793.33;108193;1270;22533;-73
2024/04/05 11:19:40;;;;;;;1.10;0.40;;;;;;;17.75;44.96;96793.40;108310;1270;25340;-73
2024/04/05 11:22:12;;;;;;;1.70;0.60;;;;;;;17.58;45.42;96793.42;108155;1263;22512;-73
2024/04/05 11:24:49;;;;;;;1.10;0.40;;;;;;;17.75;45.57;96790.11;108059;1270;22540;-74
2024/04/05 11:27:23;;;;;;;1.10;0.40;;;;;;;17.63;44.79;96787.14;108054;1273;22529;-74
2024/04/05 11:29:54;;;;;;;3.40;0.40;;;;;;;17.35;44.22;96782.02;108168;1269;22550;-74
2024/04/05 11:32:31;;;;;;;1.30;0.60;;;;;;;17.06;44.39;96789.94;108133;1270;22526;-74
2024/04/05 11:35:05;;;;;;;3.00;0.80;;;;;;;17.08;45.18;96795.32;108359;1275;22523;-74
2024/04/05 11:37:36;;;;;;;0.90;0.40;;;;;;;17.37;45.64;96792.38;108484;1275;22528;-75
2024/04/05 11:40:09;;;;;;;1.20;0.50;;;;;;;17.65;44.94;96788.36;108339;1269;24702;-74
2024/04/05 11:42:42;;;;;;;1.00;0.40;;;;;;;17.72;42.98;96785.31;108200;1275;22577;-74
2024/04/05 11:45:13;;;;;;;2.30;0.80;;;;;;;17.57;42.32;96786.42;108296;1270;22540;-74
2024/04/05 11:47:46;;;;;;;3.50;1.10;;;;;;;17.47;43.58;96792.57;108409;1275;22527;-74